sensor_id;sensor_type;location;lat;lon;timestamp;P1;durP1;ratioP1;P2;durP2;ratioP2
37067;SDS011;22982;42.848;25.468;2023-08-20T00:00:13;14.25;;;10.93;;
37067;SDS011;22982;42.848;25.468;2023-08-20T00:05:16;11.23;;;10.07;;
37067;SDS011;22982;42.848;25.468;2023-08-20T00:10:18;14.95;;;10.80;;
37067;SDS011;22982;42.848;25.468;2023-08-20T00:15:21;12.43;;;9.93;;
37067;SDS011;22982;42.848;25.468;2023-08-20T00:20:28;12.00;;;10.65;;
37067;SDS011;22982;42.848;25.468;2023-08-20T00:25:30;12.13;;;10.75;;
37067;SDS011;22982;42.848;25.468;2023-08-20T00:30:34;12.52;;;10.52;;
37067;SDS011;22982;42.848;25.468;2023-08-20T00:35:36;11.90;;;10.70;;
37067;SDS011;22982;42.848;25.468;2023-08-20T00:40:39;12.48;;;10.43;;
37067;SDS011;22982;42.848;25.468;2023-08-20T00:45:41;12.73;;;10.88;;
37067;SDS011;22982;42.848;25.468;2023-08-20T00:50:44;13.40;;;11.48;;
37067;SDS011;22982;42.848;25.468;2023-08-20T00:55:47;14.95;;;12.10;;
37067;SDS011;22982;42.848;25.468;2023-08-20T01:00:50;13.13;;;11.82;;
37067;SDS011;22982;42.848;25.468;2023-08-20T01:05:53;15.50;;;12.65;;
37067;SDS011;22982;42.848;25.468;2023-08-20T01:11:17;13.48;;;10.95;;
37067;SDS011;22982;42.848;25.468;2023-08-20T01:16:28;12.48;;;11.18;;
37067;SDS011;22982;42.848;25.468;2023-08-20T01:21:37;12.27;;;10.77;;
37067;SDS011;22982;42.848;25.468;2023-08-20T01:31:55;12.50;;;10.65;;
37067;SDS011;22982;42.848;25.468;2023-08-20T01:36:59;14.85;;;10.60;;
37067;SDS011;22982;42.848;25.468;2023-08-20T01:42:01;14.70;;;11.98;;
37067;SDS011;22982;42.848;25.468;2023-08-20T01:47:04;13.88;;;11.80;;
37067;SDS011;22982;42.848;25.468;2023-08-20T01:52:06;13.13;;;11.13;;
37067;SDS011;22982;42.848;25.468;2023-08-20T01:57:10;12.25;;;11.05;;
37067;SDS011;22982;42.848;25.468;2023-08-20T02:02:12;13.80;;;10.75;;
37067;SDS011;22982;42.848;25.468;2023-08-20T02:07:15;14.98;;;10.98;;
37067;SDS011;22982;42.848;25.468;2023-08-20T02:12:20;13.45;;;11.23;;
37067;SDS011;22982;42.848;25.468;2023-08-20T02:17:22;13.60;;;11.48;;
37067;SDS011;22982;42.848;25.468;2023-08-20T02:22:28;12.93;;;11.57;;
37067;SDS011;22982;42.848;25.468;2023-08-20T02:27:31;12.55;;;11.05;;
37067;SDS011;22982;42.848;25.468;2023-08-20T02:32:35;15.90;;;11.45;;
37067;SDS011;22982;42.848;25.468;2023-08-20T02:37:37;13.35;;;11.75;;
37067;SDS011;22982;42.848;25.468;2023-08-20T02:42:46;13.98;;;11.88;;
37067;SDS011;22982;42.848;25.468;2023-08-20T02:47:48;13.25;;;11.85;;
37067;SDS011;22982;42.848;25.468;2023-08-20T02:52:54;12.13;;;10.80;;
37067;SDS011;22982;42.848;25.468;2023-08-20T02:57:56;14.07;;;12.57;;
37067;SDS011;22982;42.848;25.468;2023-08-20T03:02:59;11.60;;;10.40;;
37067;SDS011;22982;42.848;25.468;2023-08-20T03:08:05;12.38;;;10.70;;
37067;SDS011;22982;42.848;25.468;2023-08-20T03:13:07;10.93;;;9.82;;
37067;SDS011;22982;42.848;25.468;2023-08-20T03:18:10;13.90;;;10.98;;
37067;SDS011;22982;42.848;25.468;2023-08-20T03:23:12;17.67;;;11.43;;
37067;SDS011;22982;42.848;25.468;2023-08-20T03:28:17;11.80;;;10.60;;
37067;SDS011;22982;42.848;25.468;2023-08-20T03:33:21;11.45;;;10.27;;
37067;SDS011;22982;42.848;25.468;2023-08-20T03:38:25;12.23;;;10.18;;
37067;SDS011;22982;42.848;25.468;2023-08-20T03:43:28;11.32;;;10.15;;
37067;SDS011;22982;42.848;25.468;2023-08-20T03:48:31;12.13;;;10.57;;
37067;SDS011;22982;42.848;25.468;2023-08-20T03:53:33;12.88;;;10.73;;
37067;SDS011;22982;42.848;25.468;2023-08-20T03:58:36;15.35;;;11.38;;
37067;SDS011;22982;42.848;25.468;2023-08-20T04:03:39;13.95;;;11.40;;
37067;SDS011;22982;42.848;25.468;2023-08-20T04:08:42;11.60;;;10.30;;
37067;SDS011;22982;42.848;25.468;2023-08-20T04:13:45;12.07;;;10.63;;
37067;SDS011;22982;42.848;25.468;2023-08-20T04:18:49;12.27;;;10.98;;
37067;SDS011;22982;42.848;25.468;2023-08-20T04:23:51;12.63;;;10.65;;
37067;SDS011;22982;42.848;25.468;2023-08-20T04:28:54;11.52;;;10.02;;
37067;SDS011;22982;42.848;25.468;2023-08-20T04:33:57;10.32;;;9.32;;
37067;SDS011;22982;42.848;25.468;2023-08-20T04:39:12;10.93;;;9.32;;
37067;SDS011;22982;42.848;25.468;2023-08-20T04:44:19;11.40;;;10.23;;
37067;SDS011;22982;42.848;25.468;2023-08-20T04:49:23;12.70;;;10.45;;
37067;SDS011;22982;42.848;25.468;2023-08-20T04:54:34;9.98;;;8.98;;
37067;SDS011;22982;42.848;25.468;2023-08-20T04:59:37;10.25;;;9.25;;
37067;SDS011;22982;42.848;25.468;2023-08-20T05:04:51;10.90;;;9.30;;
37067;SDS011;22982;42.848;25.468;2023-08-20T05:09:55;10.93;;;9.23;;
37067;SDS011;22982;42.848;25.468;2023-08-20T05:14:58;11.82;;;9.07;;
37067;SDS011;22982;42.848;25.468;2023-08-20T05:20:02;10.20;;;9.20;;
37067;SDS011;22982;42.848;25.468;2023-08-20T05:25:05;9.60;;;8.52;;
37067;SDS011;22982;42.848;25.468;2023-08-20T05:30:08;9.23;;;7.50;;
37067;SDS011;22982;42.848;25.468;2023-08-20T05:35:12;9.68;;;7.35;;
37067;SDS011;22982;42.848;25.468;2023-08-20T05:40:17;6.55;;;5.95;;
37067;SDS011;22982;42.848;25.468;2023-08-20T05:45:19;8.25;;;6.45;;
37067;SDS011;22982;42.848;25.468;2023-08-20T05:50:24;10.10;;;6.65;;
37067;SDS011;22982;42.848;25.468;2023-08-20T05:55:27;6.90;;;6.18;;
37067;SDS011;22982;42.848;25.468;2023-08-20T06:00:30;9.82;;;6.00;;
37067;SDS011;22982;42.848;25.468;2023-08-20T06:05:35;7.40;;;5.55;;
37067;SDS011;22982;42.848;25.468;2023-08-20T06:10:38;7.53;;;5.88;;
37067;SDS011;22982;42.848;25.468;2023-08-20T06:15:40;7.18;;;5.25;;
37067;SDS011;22982;42.848;25.468;2023-08-20T06:20:43;6.15;;;5.55;;
37067;SDS011;22982;42.848;25.468;2023-08-20T06:25:45;7.55;;;5.53;;
37067;SDS011;22982;42.848;25.468;2023-08-20T06:30:49;6.68;;;4.90;;
37067;SDS011;22982;42.848;25.468;2023-08-20T06:35:53;8.90;;;5.82;;
37067;SDS011;22982;42.848;25.468;2023-08-20T06:40:55;7.68;;;5.38;;
37067;SDS011;22982;42.848;25.468;2023-08-20T06:45:59;9.48;;;5.97;;
37067;SDS011;22982;42.848;25.468;2023-08-20T06:51:13;9.23;;;5.72;;
37067;SDS011;22982;42.848;25.468;2023-08-20T06:56:17;8.88;;;5.75;;
37067;SDS011;22982;42.848;25.468;2023-08-20T07:01:20;7.50;;;5.45;;
37067;SDS011;22982;42.848;25.468;2023-08-20T07:06:22;6.85;;;6.20;;
37067;SDS011;22982;42.848;25.468;2023-08-20T07:11:26;6.68;;;5.57;;
37067;SDS011;22982;42.848;25.468;2023-08-20T07:16:28;7.40;;;6.20;;
37067;SDS011;22982;42.848;25.468;2023-08-20T07:21:31;9.00;;;6.32;;
37067;SDS011;22982;42.848;25.468;2023-08-20T07:26:34;9.32;;;6.65;;
37067;SDS011;22982;42.848;25.468;2023-08-20T07:31:36;6.97;;;6.18;;
37067;SDS011;22982;42.848;25.468;2023-08-20T07:36:39;9.07;;;5.65;;
37067;SDS011;22982;42.848;25.468;2023-08-20T07:41:41;5.97;;;5.47;;
37067;SDS011;22982;42.848;25.468;2023-08-20T07:46:44;5.95;;;5.32;;
37067;SDS011;22982;42.848;25.468;2023-08-20T07:51:47;7.38;;;5.60;;
37067;SDS011;22982;42.848;25.468;2023-08-20T07:56:50;10.50;;;5.65;;
37067;SDS011;22982;42.848;25.468;2023-08-20T08:01:53;10.05;;;5.80;;
37067;SDS011;22982;42.848;25.468;2023-08-20T08:06:55;7.03;;;5.03;;
37067;SDS011;22982;42.848;25.468;2023-08-20T08:11:59;11.52;;;5.28;;
37067;SDS011;22982;42.848;25.468;2023-08-20T08:17:01;5.55;;;4.85;;
37067;SDS011;22982;42.848;25.468;2023-08-20T08:22:04;6.88;;;5.10;;
37067;SDS011;22982;42.848;25.468;2023-08-20T08:27:07;8.93;;;4.78;;
37067;SDS011;22982;42.848;25.468;2023-08-20T08:32:09;7.82;;;4.78;;
37067;SDS011;22982;42.848;25.468;2023-08-20T08:37:12;6.45;;;5.50;;
37067;SDS011;22982;42.848;25.468;2023-08-20T08:42:14;7.78;;;5.32;;
37067;SDS011;22982;42.848;25.468;2023-08-20T08:47:18;5.57;;;5.07;;
37067;SDS011;22982;42.848;25.468;2023-08-20T08:52:24;7.95;;;4.90;;
37067;SDS011;22982;42.848;25.468;2023-08-20T08:57:27;4.97;;;4.47;;
37067;SDS011;22982;42.848;25.468;2023-08-20T09:02:30;7.72;;;4.78;;
37067;SDS011;22982;42.848;25.468;2023-08-20T09:07:33;5.68;;;4.47;;
37067;SDS011;22982;42.848;25.468;2023-08-20T09:12:36;6.50;;;5.30;;
37067;SDS011;22982;42.848;25.468;2023-08-20T09:17:42;9.27;;;4.75;;
37067;SDS011;22982;42.848;25.468;2023-08-20T09:22:48;7.47;;;5.28;;
37067;SDS011;22982;42.848;25.468;2023-08-20T09:27:51;6.60;;;4.63;;
37067;SDS011;22982;42.848;25.468;2023-08-20T09:33:02;6.28;;;4.80;;
37067;SDS011;22982;42.848;25.468;2023-08-20T09:38:18;10.25;;;4.95;;
37067;SDS011;22982;42.848;25.468;2023-08-20T09:43:26;5.30;;;4.80;;
37067;SDS011;22982;42.848;25.468;2023-08-20T09:48:33;9.65;;;5.03;;
37067;SDS011;22982;42.848;25.468;2023-08-20T09:53:39;7.50;;;4.97;;
37067;SDS011;22982;42.848;25.468;2023-08-20T09:58:49;9.43;;;4.90;;
37067;SDS011;22982;42.848;25.468;2023-08-20T10:03:53;8.98;;;5.10;;
37067;SDS011;22982;42.848;25.468;2023-08-20T10:08:56;7.13;;;4.80;;
37067;SDS011;22982;42.848;25.468;2023-08-20T10:14:00;9.20;;;4.95;;
37067;SDS011;22982;42.848;25.468;2023-08-20T10:19:03;13.65;;;5.50;;
37067;SDS011;22982;42.848;25.468;2023-08-20T10:24:08;8.15;;;5.40;;
37067;SDS011;22982;42.848;25.468;2023-08-20T10:34:42;9.40;;;5.75;;
37067;SDS011;22982;42.848;25.468;2023-08-20T10:39:54;8.38;;;7.25;;
37067;SDS011;22982;42.848;25.468;2023-08-20T10:44:58;11.10;;;5.38;;
37067;SDS011;22982;42.848;25.468;2023-08-20T10:50:01;6.57;;;5.93;;
37067;SDS011;22982;42.848;25.468;2023-08-20T10:55:04;10.02;;;6.00;;
37067;SDS011;22982;42.848;25.468;2023-08-20T11:00:08;9.23;;;5.50;;
37067;SDS011;22982;42.848;25.468;2023-08-20T11:05:16;9.40;;;6.18;;
37067;SDS011;22982;42.848;25.468;2023-08-20T11:10:20;6.80;;;5.68;;
37067;SDS011;22982;42.848;25.468;2023-08-20T11:15:23;7.13;;;5.65;;
37067;SDS011;22982;42.848;25.468;2023-08-20T11:20:25;6.80;;;6.10;;
37067;SDS011;22982;42.848;25.468;2023-08-20T11:25:28;9.90;;;6.35;;
37067;SDS011;22982;42.848;25.468;2023-08-20T11:30:30;8.25;;;6.22;;
37067;SDS011;22982;42.848;25.468;2023-08-20T11:35:34;8.45;;;5.85;;
37067;SDS011;22982;42.848;25.468;2023-08-20T11:40:37;10.52;;;6.97;;
37067;SDS011;22982;42.848;25.468;2023-08-20T11:45:46;10.70;;;6.47;;
37067;SDS011;22982;42.848;25.468;2023-08-20T11:50:49;7.57;;;6.10;;
37067;SDS011;22982;42.848;25.468;2023-08-20T11:55:52;6.10;;;5.38;;
37067;SDS011;22982;42.848;25.468;2023-08-20T12:00:55;12.63;;;6.05;;
37067;SDS011;22982;42.848;25.468;2023-08-20T12:06:15;9.13;;;5.40;;
37067;SDS011;22982;42.848;25.468;2023-08-20T12:11:28;10.57;;;6.28;;
37067;SDS011;22982;42.848;25.468;2023-08-20T12:16:31;11.35;;;8.43;;
37067;SDS011;22982;42.848;25.468;2023-08-20T12:21:33;8.68;;;5.63;;
37067;SDS011;22982;42.848;25.468;2023-08-20T12:26:37;10.85;;;6.35;;
37067;SDS011;22982;42.848;25.468;2023-08-20T12:31:40;9.45;;;5.57;;
37067;SDS011;22982;42.848;25.468;2023-08-20T12:36:44;6.90;;;6.22;;
37067;SDS011;22982;42.848;25.468;2023-08-20T12:41:49;8.70;;;6.15;;
37067;SDS011;22982;42.848;25.468;2023-08-20T12:46:51;10.90;;;6.00;;
37067;SDS011;22982;42.848;25.468;2023-08-20T12:51:54;10.77;;;6.57;;
37067;SDS011;22982;42.848;25.468;2023-08-20T12:56:57;8.68;;;6.70;;
37067;SDS011;22982;42.848;25.468;2023-08-20T13:02:00;13.23;;;10.18;;
37067;SDS011;22982;42.848;25.468;2023-08-20T13:07:03;7.85;;;6.20;;
37067;SDS011;22982;42.848;25.468;2023-08-20T13:12:07;7.68;;;5.70;;
37067;SDS011;22982;42.848;25.468;2023-08-20T13:17:14;6.20;;;5.65;;
37067;SDS011;22982;42.848;25.468;2023-08-20T13:22:16;7.32;;;5.90;;
37067;SDS011;22982;42.848;25.468;2023-08-20T13:27:19;9.35;;;6.43;;
37067;SDS011;22982;42.848;25.468;2023-08-20T13:32:21;8.73;;;5.85;;
37067;SDS011;22982;42.848;25.468;2023-08-20T13:37:24;9.10;;;6.93;;
37067;SDS011;22982;42.848;25.468;2023-08-20T13:42:27;10.15;;;8.55;;
37067;SDS011;22982;42.848;25.468;2023-08-20T13:47:32;11.15;;;6.55;;
37067;SDS011;22982;42.848;25.468;2023-08-20T13:52:34;7.97;;;6.47;;
37067;SDS011;22982;42.848;25.468;2023-08-20T13:57:37;11.35;;;8.07;;
37067;SDS011;22982;42.848;25.468;2023-08-20T14:02:40;10.68;;;6.65;;
37067;SDS011;22982;42.848;25.468;2023-08-20T14:07:42;7.50;;;5.80;;
37067;SDS011;22982;42.848;25.468;2023-08-20T14:12:45;9.05;;;6.35;;
37067;SDS011;22982;42.848;25.468;2023-08-20T14:17:48;9.93;;;6.00;;
37067;SDS011;22982;42.848;25.468;2023-08-20T14:22:50;12.40;;;6.47;;
37067;SDS011;22982;42.848;25.468;2023-08-20T14:27:53;8.60;;;6.00;;
37067;SDS011;22982;42.848;25.468;2023-08-20T14:32:58;9.70;;;8.70;;
37067;SDS011;22982;42.848;25.468;2023-08-20T14:38:01;9.32;;;5.90;;
37067;SDS011;22982;42.848;25.468;2023-08-20T14:43:07;7.80;;;6.22;;
37067;SDS011;22982;42.848;25.468;2023-08-20T14:48:10;12.20;;;7.30;;
37067;SDS011;22982;42.848;25.468;2023-08-20T14:53:13;13.57;;;9.80;;
37067;SDS011;22982;42.848;25.468;2023-08-20T14:58:15;12.00;;;8.43;;
37067;SDS011;22982;42.848;25.468;2023-08-20T15:03:18;10.25;;;8.65;;
37067;SDS011;22982;42.848;25.468;2023-08-20T15:08:21;13.52;;;9.68;;
37067;SDS011;22982;42.848;25.468;2023-08-20T15:13:23;8.55;;;6.57;;
37067;SDS011;22982;42.848;25.468;2023-08-20T15:18:26;12.15;;;6.60;;
37067;SDS011;22982;42.848;25.468;2023-08-20T15:23:28;9.20;;;7.13;;
37067;SDS011;22982;42.848;25.468;2023-08-20T15:28:32;14.73;;;11.88;;
37067;SDS011;22982;42.848;25.468;2023-08-20T15:33:35;10.95;;;7.03;;
37067;SDS011;22982;42.848;25.468;2023-08-20T15:38:38;9.90;;;6.10;;
37067;SDS011;22982;42.848;25.468;2023-08-20T15:43:41;8.32;;;6.32;;
37067;SDS011;22982;42.848;25.468;2023-08-20T15:48:44;7.00;;;6.30;;
37067;SDS011;22982;42.848;25.468;2023-08-20T15:53:47;11.55;;;7.22;;
37067;SDS011;22982;42.848;25.468;2023-08-20T15:58:50;13.38;;;9.02;;
37067;SDS011;22982;42.848;25.468;2023-08-20T16:03:52;13.65;;;7.93;;
37067;SDS011;22982;42.848;25.468;2023-08-20T16:08:55;11.80;;;7.70;;
37067;SDS011;22982;42.848;25.468;2023-08-20T16:13:58;15.32;;;7.50;;
37067;SDS011;22982;42.848;25.468;2023-08-20T16:19:00;11.73;;;7.78;;
37067;SDS011;22982;42.848;25.468;2023-08-20T16:24:03;8.80;;;6.50;;
37067;SDS011;22982;42.848;25.468;2023-08-20T16:29:07;10.30;;;7.95;;
37067;SDS011;22982;42.848;25.468;2023-08-20T16:34:09;11.95;;;7.68;;
37067;SDS011;22982;42.848;25.468;2023-08-20T16:39:12;11.75;;;7.70;;
37067;SDS011;22982;42.848;25.468;2023-08-20T16:44:14;14.05;;;8.40;;
37067;SDS011;22982;42.848;25.468;2023-08-20T16:49:17;8.70;;;7.65;;
37067;SDS011;22982;42.848;25.468;2023-08-20T16:54:19;12.90;;;8.50;;
37067;SDS011;22982;42.848;25.468;2023-08-20T16:59:23;12.73;;;8.85;;
37067;SDS011;22982;42.848;25.468;2023-08-20T17:04:25;11.70;;;8.88;;
37067;SDS011;22982;42.848;25.468;2023-08-20T17:09:30;9.68;;;8.63;;
37067;SDS011;22982;42.848;25.468;2023-08-20T17:14:33;10.77;;;9.02;;
37067;SDS011;22982;42.848;25.468;2023-08-20T17:19:36;11.45;;;9.27;;
37067;SDS011;22982;42.848;25.468;2023-08-20T17:24:39;13.25;;;8.98;;
37067;SDS011;22982;42.848;25.468;2023-08-20T17:29:42;11.85;;;8.77;;
37067;SDS011;22982;42.848;25.468;2023-08-20T17:34:44;9.77;;;7.47;;
37067;SDS011;22982;42.848;25.468;2023-08-20T17:39:48;11.93;;;8.68;;
37067;SDS011;22982;42.848;25.468;2023-08-20T17:44:50;11.85;;;8.50;;
37067;SDS011;22982;42.848;25.468;2023-08-20T17:49:53;13.57;;;7.85;;
37067;SDS011;22982;42.848;25.468;2023-08-20T17:54:55;8.52;;;7.55;;
37067;SDS011;22982;42.848;25.468;2023-08-20T17:59:59;9.70;;;7.53;;
37067;SDS011;22982;42.848;25.468;2023-08-20T18:05:01;8.40;;;7.53;;
37067;SDS011;22982;42.848;25.468;2023-08-20T18:10:10;8.65;;;7.32;;
37067;SDS011;22982;42.848;25.468;2023-08-20T18:15:13;12.35;;;8.60;;
37067;SDS011;22982;42.848;25.468;2023-08-20T18:20:16;11.52;;;8.82;;
37067;SDS011;22982;42.848;25.468;2023-08-20T18:25:18;12.77;;;8.57;;
37067;SDS011;22982;42.848;25.468;2023-08-20T18:30:22;11.60;;;8.65;;
37067;SDS011;22982;42.848;25.468;2023-08-20T18:35:24;11.00;;;8.27;;
37067;SDS011;22982;42.848;25.468;2023-08-20T18:40:27;12.55;;;9.75;;
37067;SDS011;22982;42.848;25.468;2023-08-20T18:45:30;9.98;;;8.98;;
37067;SDS011;22982;42.848;25.468;2023-08-20T18:50:32;9.48;;;8.57;;
37067;SDS011;22982;42.848;25.468;2023-08-20T18:55:35;10.43;;;8.90;;
37067;SDS011;22982;42.848;25.468;2023-08-20T19:00:37;12.43;;;8.73;;
37067;SDS011;22982;42.848;25.468;2023-08-20T19:05:42;11.57;;;9.43;;
37067;SDS011;22982;42.848;25.468;2023-08-20T19:10:47;10.30;;;9.30;;
37067;SDS011;22982;42.848;25.468;2023-08-20T19:15:49;13.52;;;9.43;;
37067;SDS011;22982;42.848;25.468;2023-08-20T19:21:15;10.88;;;9.57;;
37067;SDS011;22982;42.848;25.468;2023-08-20T19:26:20;12.10;;;10.43;;
37067;SDS011;22982;42.848;25.468;2023-08-20T19:31:23;12.18;;;10.57;;
37067;SDS011;22982;42.848;25.468;2023-08-20T19:36:27;11.82;;;9.85;;
37067;SDS011;22982;42.848;25.468;2023-08-20T19:41:30;12.40;;;9.63;;
37067;SDS011;22982;42.848;25.468;2023-08-20T19:46:32;10.85;;;9.75;;
37067;SDS011;22982;42.848;25.468;2023-08-20T19:51:36;12.30;;;10.18;;
37067;SDS011;22982;42.848;25.468;2023-08-20T19:56:38;10.65;;;9.55;;
37067;SDS011;22982;42.848;25.468;2023-08-20T20:01:47;11.40;;;10.00;;
37067;SDS011;22982;42.848;25.468;2023-08-20T20:06:54;11.98;;;10.40;;
37067;SDS011;22982;42.848;25.468;2023-08-20T20:12:17;13.65;;;10.60;;
37067;SDS011;22982;42.848;25.468;2023-08-20T20:17:20;11.68;;;9.93;;
37067;SDS011;22982;42.848;25.468;2023-08-20T20:22:23;13.20;;;11.02;;
37067;SDS011;22982;42.848;25.468;2023-08-20T20:27:27;14.27;;;9.77;;
37067;SDS011;22982;42.848;25.468;2023-08-20T20:32:34;19.75;;;10.68;;
37067;SDS011;22982;42.848;25.468;2023-08-20T20:37:38;11.32;;;10.15;;
37067;SDS011;22982;42.848;25.468;2023-08-20T20:42:41;13.38;;;9.88;;
37067;SDS011;22982;42.848;25.468;2023-08-20T20:47:44;12.05;;;10.82;;
37067;SDS011;22982;42.848;25.468;2023-08-20T20:52:47;11.73;;;10.35;;
37067;SDS011;22982;42.848;25.468;2023-08-20T20:57:55;11.55;;;10.45;;
37067;SDS011;22982;42.848;25.468;2023-08-20T21:02:58;10.68;;;9.65;;
37067;SDS011;22982;42.848;25.468;2023-08-20T21:08:01;13.05;;;10.38;;
37067;SDS011;22982;42.848;25.468;2023-08-20T21:13:07;10.70;;;9.60;;
37067;SDS011;22982;42.848;25.468;2023-08-20T21:18:16;11.85;;;9.73;;
37067;SDS011;22982;42.848;25.468;2023-08-20T21:23:18;10.82;;;8.65;;
37067;SDS011;22982;42.848;25.468;2023-08-20T21:28:46;14.15;;;10.75;;
37067;SDS011;22982;42.848;25.468;2023-08-20T21:33:48;11.38;;;9.38;;
37067;SDS011;22982;42.848;25.468;2023-08-20T21:38:52;13.43;;;9.82;;
37067;SDS011;22982;42.848;25.468;2023-08-20T21:43:54;11.77;;;10.18;;
37067;SDS011;22982;42.848;25.468;2023-08-20T21:48:57;11.40;;;10.30;;
37067;SDS011;22982;42.848;25.468;2023-08-20T21:54:00;12.77;;;11.32;;
37067;SDS011;22982;42.848;25.468;2023-08-20T21:59:02;13.30;;;9.93;;
37067;SDS011;22982;42.848;25.468;2023-08-20T22:04:04;11.10;;;10.00;;
37067;SDS011;22982;42.848;25.468;2023-08-20T22:09:07;12.25;;;9.63;;
37067;SDS011;22982;42.848;25.468;2023-08-20T22:14:10;10.00;;;9.00;;
37067;SDS011;22982;42.848;25.468;2023-08-20T22:19:12;12.18;;;10.32;;
37067;SDS011;22982;42.848;25.468;2023-08-20T22:24:16;12.18;;;10.35;;
37067;SDS011;22982;42.848;25.468;2023-08-20T22:29:21;11.05;;;9.93;;
37067;SDS011;22982;42.848;25.468;2023-08-20T22:34:24;11.63;;;10.02;;
37067;SDS011;22982;42.848;25.468;2023-08-20T22:39:27;11.43;;;9.98;;
37067;SDS011;22982;42.848;25.468;2023-08-20T22:44:29;12.05;;;9.82;;
37067;SDS011;22982;42.848;25.468;2023-08-20T22:49:32;10.68;;;9.57;;
37067;SDS011;22982;42.848;25.468;2023-08-20T22:54:34;11.02;;;9.93;;
37067;SDS011;22982;42.848;25.468;2023-08-20T22:59:36;10.00;;;9.00;;
37067;SDS011;22982;42.848;25.468;2023-08-20T23:04:38;10.07;;;8.98;;
37067;SDS011;22982;42.848;25.468;2023-08-20T23:09:44;11.50;;;9.93;;
37067;SDS011;22982;42.848;25.468;2023-08-20T23:14:46;10.75;;;8.90;;
37067;SDS011;22982;42.848;25.468;2023-08-20T23:19:49;14.15;;;9.20;;
37067;SDS011;22982;42.848;25.468;2023-08-20T23:24:52;9.55;;;8.57;;
37067;SDS011;22982;42.848;25.468;2023-08-20T23:29:54;10.45;;;8.23;;
37067;SDS011;22982;42.848;25.468;2023-08-20T23:35:00;10.20;;;8.80;;
37067;SDS011;22982;42.848;25.468;2023-08-20T23:40:03;12.30;;;9.00;;
37067;SDS011;22982;42.848;25.468;2023-08-20T23:45:06;10.57;;;8.13;;
37067;SDS011;22982;42.848;25.468;2023-08-20T23:50:10;9.40;;;8.35;;
37067;SDS011;22982;42.848;25.468;2023-08-20T23:55:12;12.10;;;8.10;;
